sensor_id;sensor_type;location;lat;lon;timestamp;temperature;humidity
39889;DHT22;25563;50.844;4.308;2022-07-06T00:02:03;17.90;77.80
39889;DHT22;25563;50.844;4.308;2022-07-06T00:04:29;17.90;77.50
39889;DHT22;25563;50.844;4.308;2022-07-06T00:06:54;17.80;77.70
39889;DHT22;25563;50.844;4.308;2022-07-06T00:09:20;17.80;77.80
39889;DHT22;25563;50.844;4.308;2022-07-06T00:11:46;17.80;78.00
39889;DHT22;25563;50.844;4.308;2022-07-06T00:14:12;17.70;78.20
39889;DHT22;25563;50.844;4.308;2022-07-06T00:16:38;17.70;78.30
39889;DHT22;25563;50.844;4.308;2022-07-06T00:19:03;17.60;78.50
39889;DHT22;25563;50.844;4.308;2022-07-06T00:21:29;17.60;78.70
39889;DHT22;25563;50.844;4.308;2022-07-06T00:23:54;17.60;78.80
39889;DHT22;25563;50.844;4.308;2022-07-06T00:26:20;17.60;78.70
39889;DHT22;25563;50.844;4.308;2022-07-06T00:28:46;17.60;79.00
39889;DHT22;25563;50.844;4.308;2022-07-06T00:31:12;17.60;79.30
39889;DHT22;25563;50.844;4.308;2022-07-06T00:33:38;17.50;79.30
39889;DHT22;25563;50.844;4.308;2022-07-06T00:36:04;17.50;79.50
39889;DHT22;25563;50.844;4.308;2022-07-06T00:38:30;17.50;79.50
39889;DHT22;25563;50.844;4.308;2022-07-06T00:40:55;17.40;79.70
39889;DHT22;25563;50.844;4.308;2022-07-06T00:43:21;17.40;79.90
39889;DHT22;25563;50.844;4.308;2022-07-06T00:45:47;17.30;80.20
39889;DHT22;25563;50.844;4.308;2022-07-06T00:48:13;17.20;80.50
39889;DHT22;25563;50.844;4.308;2022-07-06T00:50:39;17.30;80.70
39889;DHT22;25563;50.844;4.308;2022-07-06T00:53:08;17.20;80.70
39889;DHT22;25563;50.844;4.308;2022-07-06T00:55:37;17.20;80.90
39889;DHT22;25563;50.844;4.308;2022-07-06T00:58:07;17.20;81.10
39889;DHT22;25563;50.844;4.308;2022-07-06T01:00:36;17.20;81.00
39889;DHT22;25563;50.844;4.308;2022-07-06T01:03:03;17.20;81.10
39889;DHT22;25563;50.844;4.308;2022-07-06T01:05:35;17.20;81.20
39889;DHT22;25563;50.844;4.308;2022-07-06T01:08:00;17.20;81.50
39889;DHT22;25563;50.844;4.308;2022-07-06T01:10:27;17.10;81.40
39889;DHT22;25563;50.844;4.308;2022-07-06T01:12:52;17.10;81.50
39889;DHT22;25563;50.844;4.308;2022-07-06T01:15:22;17.10;81.80
39889;DHT22;25563;50.844;4.308;2022-07-06T01:17:48;17.10;81.80
39889;DHT22;25563;50.844;4.308;2022-07-06T01:20:18;17.10;81.90
39889;DHT22;25563;50.844;4.308;2022-07-06T01:22:45;17.00;82.30
39889;DHT22;25563;50.844;4.308;2022-07-06T01:25:11;17.00;82.30
39889;DHT22;25563;50.844;4.308;2022-07-06T01:27:38;17.00;82.50
39889;DHT22;25563;50.844;4.308;2022-07-06T01:30:06;16.90;82.70
39889;DHT22;25563;50.844;4.308;2022-07-06T01:32:32;16.80;83.00
39889;DHT22;25563;50.844;4.308;2022-07-06T01:34:58;16.80;83.30
39889;DHT22;25563;50.844;4.308;2022-07-06T01:37:24;16.80;83.30
39889;DHT22;25563;50.844;4.308;2022-07-06T01:39:50;16.80;83.30
39889;DHT22;25563;50.844;4.308;2022-07-06T01:42:16;16.70;83.50
39889;DHT22;25563;50.844;4.308;2022-07-06T01:44:43;16.70;83.60
39889;DHT22;25563;50.844;4.308;2022-07-06T01:47:10;16.70;83.80
39889;DHT22;25563;50.844;4.308;2022-07-06T01:49:35;16.70;84.00
39889;DHT22;25563;50.844;4.308;2022-07-06T01:52:02;16.60;84.00
39889;DHT22;25563;50.844;4.308;2022-07-06T01:54:28;16.60;84.20
39889;DHT22;25563;50.844;4.308;2022-07-06T01:56:54;16.50;84.60
39889;DHT22;25563;50.844;4.308;2022-07-06T01:59:20;16.50;84.60
39889;DHT22;25563;50.844;4.308;2022-07-06T02:01:47;16.50;84.70
39889;DHT22;25563;50.844;4.308;2022-07-06T02:04:12;16.40;84.80
39889;DHT22;25563;50.844;4.308;2022-07-06T02:06:38;16.40;85.00
39889;DHT22;25563;50.844;4.308;2022-07-06T02:09:03;16.40;85.00
39889;DHT22;25563;50.844;4.308;2022-07-06T02:11:29;16.40;85.10
39889;DHT22;25563;50.844;4.308;2022-07-06T02:13:55;16.40;85.00
39889;DHT22;25563;50.844;4.308;2022-07-06T02:16:21;16.40;85.10
39889;DHT22;25563;50.844;4.308;2022-07-06T02:18:46;16.40;85.20
39889;DHT22;25563;50.844;4.308;2022-07-06T02:21:12;16.40;85.30
39889;DHT22;25563;50.844;4.308;2022-07-06T02:23:37;16.40;85.40
39889;DHT22;25563;50.844;4.308;2022-07-06T02:26:04;16.30;85.40
39889;DHT22;25563;50.844;4.308;2022-07-06T02:28:30;16.30;85.30
39889;DHT22;25563;50.844;4.308;2022-07-06T02:30:56;16.30;85.50
39889;DHT22;25563;50.844;4.308;2022-07-06T02:33:22;16.30;85.40
39889;DHT22;25563;50.844;4.308;2022-07-06T02:35:47;16.30;85.50
39889;DHT22;25563;50.844;4.308;2022-07-06T02:38:13;16.20;85.80
39889;DHT22;25563;50.844;4.308;2022-07-06T02:40:39;16.20;85.80
39889;DHT22;25563;50.844;4.308;2022-07-06T02:43:04;16.20;86.10
39889;DHT22;25563;50.844;4.308;2022-07-06T02:45:31;16.20;86.20
39889;DHT22;25563;50.844;4.308;2022-07-06T02:47:57;16.20;86.40
39889;DHT22;25563;50.844;4.308;2022-07-06T02:50:24;16.20;86.40
39889;DHT22;25563;50.844;4.308;2022-07-06T02:52:50;16.10;86.60
39889;DHT22;25563;50.844;4.308;2022-07-06T02:55:16;16.10;86.80
39889;DHT22;25563;50.844;4.308;2022-07-06T02:57:42;16.10;87.00
39889;DHT22;25563;50.844;4.308;2022-07-06T03:00:09;16.00;87.10
39889;DHT22;25563;50.844;4.308;2022-07-06T03:02:35;16.00;87.30
39889;DHT22;25563;50.844;4.308;2022-07-06T03:05:01;16.00;87.60
39889;DHT22;25563;50.844;4.308;2022-07-06T03:07:27;16.00;87.90
39889;DHT22;25563;50.844;4.308;2022-07-06T03:09:53;15.90;88.20
39889;DHT22;25563;50.844;4.308;2022-07-06T03:12:19;15.90;88.50
39889;DHT22;25563;50.844;4.308;2022-07-06T03:14:45;15.90;88.60
39889;DHT22;25563;50.844;4.308;2022-07-06T03:17:11;15.90;88.80
39889;DHT22;25563;50.844;4.308;2022-07-06T03:19:36;15.90;88.80
39889;DHT22;25563;50.844;4.308;2022-07-06T03:22:02;15.90;88.80
39889;DHT22;25563;50.844;4.308;2022-07-06T03:24:28;15.80;88.90
39889;DHT22;25563;50.844;4.308;2022-07-06T03:26:54;15.80;89.10
39889;DHT22;25563;50.844;4.308;2022-07-06T03:29:20;15.80;89.10
39889;DHT22;25563;50.844;4.308;2022-07-06T03:31:46;15.80;89.30
39889;DHT22;25563;50.844;4.308;2022-07-06T03:34:11;15.80;89.50
39889;DHT22;25563;50.844;4.308;2022-07-06T03:36:38;15.80;89.50
39889;DHT22;25563;50.844;4.308;2022-07-06T03:39:03;15.80;89.80
39889;DHT22;25563;50.844;4.308;2022-07-06T03:41:29;15.70;89.90
39889;DHT22;25563;50.844;4.308;2022-07-06T03:43:56;15.70;89.60
39889;DHT22;25563;50.844;4.308;2022-07-06T03:46:21;15.70;89.60
39889;DHT22;25563;50.844;4.308;2022-07-06T03:48:47;15.70;89.90
39889;DHT22;25563;50.844;4.308;2022-07-06T03:51:13;15.70;89.80
39889;DHT22;25563;50.844;4.308;2022-07-06T03:53:39;15.70;90.00
39889;DHT22;25563;50.844;4.308;2022-07-06T03:56:05;15.60;90.10
39889;DHT22;25563;50.844;4.308;2022-07-06T03:58:49;15.60;90.20
39889;DHT22;25563;50.844;4.308;2022-07-06T04:01:14;15.70;90.30
39889;DHT22;25563;50.844;4.308;2022-07-06T04:03:40;15.80;90.20
39889;DHT22;25563;50.844;4.308;2022-07-06T04:06:06;15.80;90.00
39889;DHT22;25563;50.844;4.308;2022-07-06T04:08:32;15.90;90.00
39889;DHT22;25563;50.844;4.308;2022-07-06T04:10:58;16.00;89.80
39889;DHT22;25563;50.844;4.308;2022-07-06T04:13:24;16.00;89.90
39889;DHT22;25563;50.844;4.308;2022-07-06T04:15:51;15.90;90.00
39889;DHT22;25563;50.844;4.308;2022-07-06T04:18:17;15.90;90.10
39889;DHT22;25563;50.844;4.308;2022-07-06T04:20:42;15.90;90.00
39889;DHT22;25563;50.844;4.308;2022-07-06T04:23:08;15.90;90.10
39889;DHT22;25563;50.844;4.308;2022-07-06T04:25:34;15.90;90.30
39889;DHT22;25563;50.844;4.308;2022-07-06T04:28:00;16.00;89.80
39889;DHT22;25563;50.844;4.308;2022-07-06T04:30:26;16.00;89.60
39889;DHT22;25563;50.844;4.308;2022-07-06T04:32:52;16.10;89.80
39889;DHT22;25563;50.844;4.308;2022-07-06T04:35:18;16.10;89.90
39889;DHT22;25563;50.844;4.308;2022-07-06T04:37:43;16.10;89.90
39889;DHT22;25563;50.844;4.308;2022-07-06T04:40:11;16.10;89.60
39889;DHT22;25563;50.844;4.308;2022-07-06T04:42:38;16.10;89.80
39889;DHT22;25563;50.844;4.308;2022-07-06T04:45:04;16.10;89.70
39889;DHT22;25563;50.844;4.308;2022-07-06T04:47:30;16.20;89.80
39889;DHT22;25563;50.844;4.308;2022-07-06T04:49:56;16.20;89.20
39889;DHT22;25563;50.844;4.308;2022-07-06T04:52:21;16.30;89.10
39889;DHT22;25563;50.844;4.308;2022-07-06T04:54:47;16.30;88.70
39889;DHT22;25563;50.844;4.308;2022-07-06T04:57:13;16.40;89.10
39889;DHT22;25563;50.844;4.308;2022-07-06T04:59:39;16.40;89.00
39889;DHT22;25563;50.844;4.308;2022-07-06T05:02:05;16.30;89.10
39889;DHT22;25563;50.844;4.308;2022-07-06T05:04:31;16.30;89.20
39889;DHT22;25563;50.844;4.308;2022-07-06T05:06:56;16.30;89.40
39889;DHT22;25563;50.844;4.308;2022-07-06T05:09:22;16.30;89.50
39889;DHT22;25563;50.844;4.308;2022-07-06T05:11:48;16.30;89.60
39889;DHT22;25563;50.844;4.308;2022-07-06T05:14:14;16.20;89.50
39889;DHT22;25563;50.844;4.308;2022-07-06T05:16:39;16.20;89.70
39889;DHT22;25563;50.844;4.308;2022-07-06T05:19:05;16.20;90.00
39889;DHT22;25563;50.844;4.308;2022-07-06T05:21:31;16.30;90.00
39889;DHT22;25563;50.844;4.308;2022-07-06T05:23:56;16.30;90.00
39889;DHT22;25563;50.844;4.308;2022-07-06T05:26:22;16.30;90.00
39889;DHT22;25563;50.844;4.308;2022-07-06T05:28:48;16.30;90.00
39889;DHT22;25563;50.844;4.308;2022-07-06T05:31:14;16.30;89.90
39889;DHT22;25563;50.844;4.308;2022-07-06T05:33:39;16.30;90.00
39889;DHT22;25563;50.844;4.308;2022-07-06T05:36:05;16.40;90.10
39889;DHT22;25563;50.844;4.308;2022-07-06T05:38:31;16.40;90.20
39889;DHT22;25563;50.844;4.308;2022-07-06T05:40:57;16.50;90.30
39889;DHT22;25563;50.844;4.308;2022-07-06T05:43:23;16.50;90.20
39889;DHT22;25563;50.844;4.308;2022-07-06T05:45:49;16.60;89.80
39889;DHT22;25563;50.844;4.308;2022-07-06T05:48:15;16.70;89.40
39889;DHT22;25563;50.844;4.308;2022-07-06T05:51:00;16.80;89.70
39889;DHT22;25563;50.844;4.308;2022-07-06T05:53:25;16.90;89.10
39889;DHT22;25563;50.844;4.308;2022-07-06T05:55:51;17.10;88.80
39889;DHT22;25563;50.844;4.308;2022-07-06T05:58:17;17.30;88.30
39889;DHT22;25563;50.844;4.308;2022-07-06T06:00:42;17.40;87.90
39889;DHT22;25563;50.844;4.308;2022-07-06T06:03:08;17.50;87.70
39889;DHT22;25563;50.844;4.308;2022-07-06T06:05:34;17.60;87.30
39889;DHT22;25563;50.844;4.308;2022-07-06T06:08:00;17.70;87.30
39889;DHT22;25563;50.844;4.308;2022-07-06T06:10:26;17.90;86.80
39889;DHT22;25563;50.844;4.308;2022-07-06T06:12:52;17.90;86.60
39889;DHT22;25563;50.844;4.308;2022-07-06T06:15:18;18.00;86.30
39889;DHT22;25563;50.844;4.308;2022-07-06T06:17:44;18.10;85.90
39889;DHT22;25563;50.844;4.308;2022-07-06T06:20:12;18.20;85.90
39889;DHT22;25563;50.844;4.308;2022-07-06T06:22:55;18.30;85.50
39889;DHT22;25563;50.844;4.308;2022-07-06T06:25:27;18.40;85.30
39889;DHT22;25563;50.844;4.308;2022-07-06T06:27:55;18.40;84.70
39889;DHT22;25563;50.844;4.308;2022-07-06T06:30:21;18.40;84.60
39889;DHT22;25563;50.844;4.308;2022-07-06T06:32:47;18.50;84.70
39889;DHT22;25563;50.844;4.308;2022-07-06T06:35:13;18.60;84.00
39889;DHT22;25563;50.844;4.308;2022-07-06T06:37:38;18.60;83.90
39889;DHT22;25563;50.844;4.308;2022-07-06T06:40:05;18.70;83.70
39889;DHT22;25563;50.844;4.308;2022-07-06T06:42:32;18.80;83.40
39889;DHT22;25563;50.844;4.308;2022-07-06T06:44:57;18.90;82.80
39889;DHT22;25563;50.844;4.308;2022-07-06T06:47:23;19.00;82.10
39889;DHT22;25563;50.844;4.308;2022-07-06T06:49:49;19.10;81.10
39889;DHT22;25563;50.844;4.308;2022-07-06T06:52:15;19.20;80.60
39889;DHT22;25563;50.844;4.308;2022-07-06T06:54:40;19.30;80.20
39889;DHT22;25563;50.844;4.308;2022-07-06T06:57:06;19.40;80.30
39889;DHT22;25563;50.844;4.308;2022-07-06T06:59:32;19.50;80.60
39889;DHT22;25563;50.844;4.308;2022-07-06T07:01:57;19.50;79.90
39889;DHT22;25563;50.844;4.308;2022-07-06T07:04:23;19.60;80.00
39889;DHT22;25563;50.844;4.308;2022-07-06T07:06:49;19.70;79.60
39889;DHT22;25563;50.844;4.308;2022-07-06T07:09:15;19.80;78.90
39889;DHT22;25563;50.844;4.308;2022-07-06T07:11:42;19.90;78.10
39889;DHT22;25563;50.844;4.308;2022-07-06T07:14:08;20.00;75.00
39889;DHT22;25563;50.844;4.308;2022-07-06T07:16:34;20.00;73.20
39889;DHT22;25563;50.844;4.308;2022-07-06T07:18:59;20.00;73.40
39889;DHT22;25563;50.844;4.308;2022-07-06T07:21:25;19.90;74.00
39889;DHT22;25563;50.844;4.308;2022-07-06T07:23:51;19.80;74.70
39889;DHT22;25563;50.844;4.308;2022-07-06T07:26:17;19.80;75.20
39889;DHT22;25563;50.844;4.308;2022-07-06T07:28:42;19.70;74.80
39889;DHT22;25563;50.844;4.308;2022-07-06T07:31:08;19.80;74.20
39889;DHT22;25563;50.844;4.308;2022-07-06T07:33:34;19.90;74.40
39889;DHT22;25563;50.844;4.308;2022-07-06T07:35:59;20.00;75.30
39889;DHT22;25563;50.844;4.308;2022-07-06T07:38:25;20.10;75.40
39889;DHT22;25563;50.844;4.308;2022-07-06T07:40:53;20.20;74.20
39889;DHT22;25563;50.844;4.308;2022-07-06T07:43:19;20.40;72.80
39889;DHT22;25563;50.844;4.308;2022-07-06T07:45:46;20.40;72.70
39889;DHT22;25563;50.844;4.308;2022-07-06T07:48:12;20.40;73.30
39889;DHT22;25563;50.844;4.308;2022-07-06T07:50:38;20.50;73.70
39889;DHT22;25563;50.844;4.308;2022-07-06T07:53:04;20.50;73.20
39889;DHT22;25563;50.844;4.308;2022-07-06T07:55:30;20.50;74.10
39889;DHT22;25563;50.844;4.308;2022-07-06T07:57:56;20.50;73.70
39889;DHT22;25563;50.844;4.308;2022-07-06T08:00:22;20.50;72.80
39889;DHT22;25563;50.844;4.308;2022-07-06T08:02:47;20.50;73.00
39889;DHT22;25563;50.844;4.308;2022-07-06T08:05:13;20.40;72.30
39889;DHT22;25563;50.844;4.308;2022-07-06T08:07:42;20.40;71.90
39889;DHT22;25563;50.844;4.308;2022-07-06T08:10:08;20.40;71.70
39889;DHT22;25563;50.844;4.308;2022-07-06T08:12:36;20.40;71.00
39889;DHT22;25563;50.844;4.308;2022-07-06T08:15:03;20.40;70.50
39889;DHT22;25563;50.844;4.308;2022-07-06T08:17:30;20.50;70.40
39889;DHT22;25563;50.844;4.308;2022-07-06T08:19:56;20.50;70.00
39889;DHT22;25563;50.844;4.308;2022-07-06T08:22:22;20.50;70.20
39889;DHT22;25563;50.844;4.308;2022-07-06T08:24:47;20.50;70.00
39889;DHT22;25563;50.844;4.308;2022-07-06T08:27:13;20.50;70.60
39889;DHT22;25563;50.844;4.308;2022-07-06T08:29:39;20.60;70.50
39889;DHT22;25563;50.844;4.308;2022-07-06T08:32:05;20.70;70.40
39889;DHT22;25563;50.844;4.308;2022-07-06T08:34:31;20.80;70.50
39889;DHT22;25563;50.844;4.308;2022-07-06T08:36:57;21.00;69.40
39889;DHT22;25563;50.844;4.308;2022-07-06T08:39:22;21.10;68.60
39889;DHT22;25563;50.844;4.308;2022-07-06T08:41:49;21.20;68.20
39889;DHT22;25563;50.844;4.308;2022-07-06T08:44:16;21.20;68.50
39889;DHT22;25563;50.844;4.308;2022-07-06T08:46:42;21.20;68.80
39889;DHT22;25563;50.844;4.308;2022-07-06T08:49:09;21.40;69.40
39889;DHT22;25563;50.844;4.308;2022-07-06T08:51:37;21.50;69.30
39889;DHT22;25563;50.844;4.308;2022-07-06T08:54:04;21.50;69.00
39889;DHT22;25563;50.844;4.308;2022-07-06T08:56:30;21.50;69.30
39889;DHT22;25563;50.844;4.308;2022-07-06T08:58:56;21.50;68.60
39889;DHT22;25563;50.844;4.308;2022-07-06T09:01:22;21.60;68.80
39889;DHT22;25563;50.844;4.308;2022-07-06T09:03:52;21.70;69.00
39889;DHT22;25563;50.844;4.308;2022-07-06T09:06:26;22.00;68.70
39889;DHT22;25563;50.844;4.308;2022-07-06T09:08:56;22.30;68.00
39889;DHT22;25563;50.844;4.308;2022-07-06T09:11:24;22.60;66.80
39889;DHT22;25563;50.844;4.308;2022-07-06T09:13:51;22.80;66.30
39889;DHT22;25563;50.844;4.308;2022-07-06T09:16:17;23.00;65.50
39889;DHT22;25563;50.844;4.308;2022-07-06T09:18:44;23.00;65.30
39889;DHT22;25563;50.844;4.308;2022-07-06T09:21:10;23.20;65.50
39889;DHT22;25563;50.844;4.308;2022-07-06T09:23:37;23.30;65.10
39889;DHT22;25563;50.844;4.308;2022-07-06T09:26:05;23.30;65.30
39889;DHT22;25563;50.844;4.308;2022-07-06T09:28:42;23.30;64.80
39889;DHT22;25563;50.844;4.308;2022-07-06T09:31:08;23.40;65.10
39889;DHT22;25563;50.844;4.308;2022-07-06T09:33:35;23.50;65.20
39889;DHT22;25563;50.844;4.308;2022-07-06T09:36:00;23.50;64.40
39889;DHT22;25563;50.844;4.308;2022-07-06T09:38:28;23.60;64.10
39889;DHT22;25563;50.844;4.308;2022-07-06T09:40:54;23.70;64.30
39889;DHT22;25563;50.844;4.308;2022-07-06T09:43:22;23.80;64.20
39889;DHT22;25563;50.844;4.308;2022-07-06T09:45:53;23.80;63.70
39889;DHT22;25563;50.844;4.308;2022-07-06T09:48:27;23.70;62.80
39889;DHT22;25563;50.844;4.308;2022-07-06T09:50:59;23.70;62.90
39889;DHT22;25563;50.844;4.308;2022-07-06T09:53:28;23.70;62.90
39889;DHT22;25563;50.844;4.308;2022-07-06T09:55:55;23.80;63.00
39889;DHT22;25563;50.844;4.308;2022-07-06T09:58:21;23.80;62.90
39889;DHT22;25563;50.844;4.308;2022-07-06T10:00:48;23.70;62.90
39889;DHT22;25563;50.844;4.308;2022-07-06T10:03:15;23.60;62.70
39889;DHT22;25563;50.844;4.308;2022-07-06T10:05:44;23.80;63.00
39889;DHT22;25563;50.844;4.308;2022-07-06T10:08:13;23.80;63.10
39889;DHT22;25563;50.844;4.308;2022-07-06T10:10:40;24.00;63.10
39889;DHT22;25563;50.844;4.308;2022-07-06T10:13:07;24.10;62.90
39889;DHT22;25563;50.844;4.308;2022-07-06T10:15:34;24.10;62.90
39889;DHT22;25563;50.844;4.308;2022-07-06T10:18:03;24.10;62.60
39889;DHT22;25563;50.844;4.308;2022-07-06T10:20:32;24.10;62.20
39889;DHT22;25563;50.844;4.308;2022-07-06T10:23:00;24.20;62.60
39889;DHT22;25563;50.844;4.308;2022-07-06T10:25:27;24.40;62.00
39889;DHT22;25563;50.844;4.308;2022-07-06T10:27:53;24.50;61.70
39889;DHT22;25563;50.844;4.308;2022-07-06T10:30:21;24.60;61.40
39889;DHT22;25563;50.844;4.308;2022-07-06T10:32:48;24.70;61.80
39889;DHT22;25563;50.844;4.308;2022-07-06T10:35:16;24.90;61.50
39889;DHT22;25563;50.844;4.308;2022-07-06T10:37:44;25.00;60.80
39889;DHT22;25563;50.844;4.308;2022-07-06T10:40:13;24.80;61.10
39889;DHT22;25563;50.844;4.308;2022-07-06T10:43:15;24.60;61.40
39889;DHT22;25563;50.844;4.308;2022-07-06T10:50:55;24.80;60.70
39889;DHT22;25563;50.844;4.308;2022-07-06T10:56:10;24.90;60.50
39889;DHT22;25563;50.844;4.308;2022-07-06T10:58:49;25.00;60.20
39889;DHT22;25563;50.844;4.308;2022-07-06T11:01:21;25.20;59.20
39889;DHT22;25563;50.844;4.308;2022-07-06T11:04:05;25.40;59.40
39889;DHT22;25563;50.844;4.308;2022-07-06T11:06:41;25.60;58.40
39889;DHT22;25563;50.844;4.308;2022-07-06T11:09:10;25.80;58.30
39889;DHT22;25563;50.844;4.308;2022-07-06T11:14:11;25.80;58.00
39889;DHT22;25563;50.844;4.308;2022-07-06T11:19:24;25.80;58.20
39889;DHT22;25563;50.844;4.308;2022-07-06T11:24:20;25.40;57.90
39889;DHT22;25563;50.844;4.308;2022-07-06T11:26:50;25.30;58.20
39889;DHT22;25563;50.844;4.308;2022-07-06T11:29:18;25.30;58.50
39889;DHT22;25563;50.844;4.308;2022-07-06T11:31:47;25.40;58.60
39889;DHT22;25563;50.844;4.308;2022-07-06T11:34:18;25.50;58.10
39889;DHT22;25563;50.844;4.308;2022-07-06T11:36:44;25.60;57.80
39889;DHT22;25563;50.844;4.308;2022-07-06T11:39:10;25.60;57.90
39889;DHT22;25563;50.844;4.308;2022-07-06T11:41:36;25.80;57.60
39889;DHT22;25563;50.844;4.308;2022-07-06T11:44:04;25.90;58.00
39889;DHT22;25563;50.844;4.308;2022-07-06T11:46:34;26.00;57.60
39889;DHT22;25563;50.844;4.308;2022-07-06T11:49:02;26.10;57.40
39889;DHT22;25563;50.844;4.308;2022-07-06T11:51:31;26.10;57.40
39889;DHT22;25563;50.844;4.308;2022-07-06T11:53:59;26.20;57.70
39889;DHT22;25563;50.844;4.308;2022-07-06T11:56:26;26.40;57.60
39889;DHT22;25563;50.844;4.308;2022-07-06T11:58:59;26.50;56.60
39889;DHT22;25563;50.844;4.308;2022-07-06T12:01:27;26.40;56.80
39889;DHT22;25563;50.844;4.308;2022-07-06T12:03:57;26.60;57.20
39889;DHT22;25563;50.844;4.308;2022-07-06T12:06:26;27.70;56.50
39889;DHT22;25563;50.844;4.308;2022-07-06T12:08:57;28.90;54.90
39889;DHT22;25563;50.844;4.308;2022-07-06T12:11:27;29.00;54.40
39889;DHT22;25563;50.844;4.308;2022-07-06T12:13:55;28.90;53.80
39889;DHT22;25563;50.844;4.308;2022-07-06T12:16:29;28.20;54.70
39889;DHT22;25563;50.844;4.308;2022-07-06T12:18:55;27.70;55.50
39889;DHT22;25563;50.844;4.308;2022-07-06T12:21:21;27.30;55.60
39889;DHT22;25563;50.844;4.308;2022-07-06T12:23:52;27.40;56.40
39889;DHT22;25563;50.844;4.308;2022-07-06T12:26:22;27.90;55.40
39889;DHT22;25563;50.844;4.308;2022-07-06T12:29:10;28.10;54.70
39889;DHT22;25563;50.844;4.308;2022-07-06T12:31:41;27.40;55.00
39889;DHT22;25563;50.844;4.308;2022-07-06T12:34:22;26.80;56.10
39889;DHT22;25563;50.844;4.308;2022-07-06T12:39:22;27.40;56.60
39889;DHT22;25563;50.844;4.308;2022-07-06T12:41:55;29.70;53.50
39889;DHT22;25563;50.844;4.308;2022-07-06T12:44:25;32.10;50.90
39889;DHT22;25563;50.844;4.308;2022-07-06T12:47:12;34.10;49.50
39889;DHT22;25563;50.844;4.308;2022-07-06T12:49:38;35.40;47.50
39889;DHT22;25563;50.844;4.308;2022-07-06T12:52:15;36.60;45.50
39889;DHT22;25563;50.844;4.308;2022-07-06T12:54:43;37.00;44.60
39889;DHT22;25563;50.844;4.308;2022-07-06T12:57:20;37.30;43.90
39889;DHT22;25563;50.844;4.308;2022-07-06T13:02:24;35.80;44.10
39889;DHT22;25563;50.844;4.308;2022-07-06T13:05:06;34.40;44.90
39889;DHT22;25563;50.844;4.308;2022-07-06T13:07:35;34.50;46.10
39889;DHT22;25563;50.844;4.308;2022-07-06T13:10:06;35.80;44.40
39889;DHT22;25563;50.844;4.308;2022-07-06T13:12:32;36.00;43.90
39889;DHT22;25563;50.844;4.308;2022-07-06T13:14:58;34.20;44.80
39889;DHT22;25563;50.844;4.308;2022-07-06T13:17:24;32.50;46.10
39889;DHT22;25563;50.844;4.308;2022-07-06T13:19:50;31.10;47.80
39889;DHT22;25563;50.844;4.308;2022-07-06T13:22:16;32.30;47.00
39889;DHT22;25563;50.844;4.308;2022-07-06T13:24:42;33.10;46.40
39889;DHT22;25563;50.844;4.308;2022-07-06T13:27:07;32.70;47.00
39889;DHT22;25563;50.844;4.308;2022-07-06T13:29:33;32.50;46.90
39889;DHT22;25563;50.844;4.308;2022-07-06T13:31:59;33.70;46.20
39889;DHT22;25563;50.844;4.308;2022-07-06T13:34:25;34.70;45.20
39889;DHT22;25563;50.844;4.308;2022-07-06T13:36:51;35.20;45.00
39889;DHT22;25563;50.844;4.308;2022-07-06T13:39:18;35.70;44.40
39889;DHT22;25563;50.844;4.308;2022-07-06T13:41:44;36.10;44.30
39889;DHT22;25563;50.844;4.308;2022-07-06T13:44:10;35.10;44.80
39889;DHT22;25563;50.844;4.308;2022-07-06T13:46:38;33.10;46.10
39889;DHT22;25563;50.844;4.308;2022-07-06T13:49:04;33.10;46.70
39889;DHT22;25563;50.844;4.308;2022-07-06T13:51:31;34.10;46.40
39889;DHT22;25563;50.844;4.308;2022-07-06T13:53:59;34.70;44.80
39889;DHT22;25563;50.844;4.308;2022-07-06T13:56:25;33.40;45.50
39889;DHT22;25563;50.844;4.308;2022-07-06T13:58:51;32.50;46.30
39889;DHT22;25563;50.844;4.308;2022-07-06T14:01:17;34.20;45.40
39889;DHT22;25563;50.844;4.308;2022-07-06T14:03:43;35.50;43.80
39889;DHT22;25563;50.844;4.308;2022-07-06T14:06:09;34.30;44.60
39889;DHT22;25563;50.844;4.308;2022-07-06T14:08:38;32.90;45.80
39889;DHT22;25563;50.844;4.308;2022-07-06T14:11:05;31.90;46.50
39889;DHT22;25563;50.844;4.308;2022-07-06T14:13:32;31.20;47.30
39889;DHT22;25563;50.844;4.308;2022-07-06T14:15:59;32.40;46.90
39889;DHT22;25563;50.844;4.308;2022-07-06T14:18:25;33.90;45.50
39889;DHT22;25563;50.844;4.308;2022-07-06T14:20:51;32.90;46.00
39889;DHT22;25563;50.844;4.308;2022-07-06T14:23:17;31.80;47.00
39889;DHT22;25563;50.844;4.308;2022-07-06T14:25:44;31.60;47.60
39889;DHT22;25563;50.844;4.308;2022-07-06T14:28:11;32.20;47.30
39889;DHT22;25563;50.844;4.308;2022-07-06T14:30:40;33.10;46.70
39889;DHT22;25563;50.844;4.308;2022-07-06T14:33:07;32.50;46.40
39889;DHT22;25563;50.844;4.308;2022-07-06T14:35:59;31.60;47.50
39889;DHT22;25563;50.844;4.308;2022-07-06T14:38:25;30.90;48.40
39889;DHT22;25563;50.844;4.308;2022-07-06T14:40:53;30.60;49.00
39889;DHT22;25563;50.844;4.308;2022-07-06T14:43:18;30.50;49.20
39889;DHT22;25563;50.844;4.308;2022-07-06T14:45:47;30.20;49.60
39889;DHT22;25563;50.844;4.308;2022-07-06T14:48:13;29.80;50.10
39889;DHT22;25563;50.844;4.308;2022-07-06T14:50:39;29.60;50.30
39889;DHT22;25563;50.844;4.308;2022-07-06T14:53:05;29.40;50.50
39889;DHT22;25563;50.844;4.308;2022-07-06T14:55:31;30.20;49.90
39889;DHT22;25563;50.844;4.308;2022-07-06T14:57:57;31.30;48.80
39889;DHT22;25563;50.844;4.308;2022-07-06T15:00:23;32.20;47.80
39889;DHT22;25563;50.844;4.308;2022-07-06T15:02:48;34.40;46.30
39889;DHT22;25563;50.844;4.308;2022-07-06T15:05:17;36.40;44.30
39889;DHT22;25563;50.844;4.308;2022-07-06T15:07:43;35.70;44.10
39889;DHT22;25563;50.844;4.308;2022-07-06T15:10:10;34.30;44.60
39889;DHT22;25563;50.844;4.308;2022-07-06T15:12:37;33.10;45.40
39889;DHT22;25563;50.844;4.308;2022-07-06T15:15:03;32.10;46.90
39889;DHT22;25563;50.844;4.308;2022-07-06T15:17:29;31.20;47.60
39889;DHT22;25563;50.844;4.308;2022-07-06T15:19:57;30.50;48.40
39889;DHT22;25563;50.844;4.308;2022-07-06T15:22:23;29.90;49.20
39889;DHT22;25563;50.844;4.308;2022-07-06T15:24:48;29.30;49.90
39889;DHT22;25563;50.844;4.308;2022-07-06T15:27:14;28.80;50.70
39889;DHT22;25563;50.844;4.308;2022-07-06T15:29:40;28.40;51.20
39889;DHT22;25563;50.844;4.308;2022-07-06T15:32:07;28.10;51.70
39889;DHT22;25563;50.844;4.308;2022-07-06T15:34:33;27.80;52.00
39889;DHT22;25563;50.844;4.308;2022-07-06T15:36:59;27.60;52.60
39889;DHT22;25563;50.844;4.308;2022-07-06T15:39:25;27.40;53.00
39889;DHT22;25563;50.844;4.308;2022-07-06T15:41:51;27.30;53.50
39889;DHT22;25563;50.844;4.308;2022-07-06T15:44:16;27.30;53.90
39889;DHT22;25563;50.844;4.308;2022-07-06T15:46:43;27.30;53.60
39889;DHT22;25563;50.844;4.308;2022-07-06T15:49:12;27.10;53.80
39889;DHT22;25563;50.844;4.308;2022-07-06T15:51:38;27.30;53.70